createdAt,value
2018-03-19T00:00:38.149Z,1007.78
2018-03-19T00:01:38.217Z,1007.75
2018-03-19T00:02:38.261Z,1007.77
2018-03-19T00:03:38.337Z,1007.77
2018-03-19T00:04:38.492Z,1007.78
2018-03-19T00:05:38.450Z,1007.78
2018-03-19T00:06:38.853Z,1007.75
2018-03-19T00:07:38.545Z,1007.77
2018-03-19T00:08:38.733Z,1007.74
2018-03-19T00:09:39.658Z,1007.76
2018-03-19T00:10:38.761Z,1007.77
2018-03-19T00:11:38.853Z,1007.76
2018-03-19T00:12:38.913Z,1007.78
2018-03-19T00:13:39.023Z,1007.75
2018-03-19T00:14:38.989Z,1007.75
2018-03-19T00:15:39.106Z,1007.74
2018-03-19T00:16:39.093Z,1007.75
2018-03-19T00:17:39.126Z,1007.72
2018-03-19T00:18:40.158Z,1007.72
2018-03-19T00:19:39.410Z,1007.73
2018-03-19T00:20:39.322Z,1007.74
2018-03-19T00:21:39.414Z,1007.71
2018-03-19T00:22:41.854Z,1007.74
2018-03-19T00:23:40.158Z,1007.73
2018-03-19T00:24:39.590Z,1007.70
2018-03-19T00:25:39.629Z,1007.72
2018-03-19T00:26:39.678Z,1007.68
2018-03-19T00:27:39.758Z,1007.70
2018-03-19T00:28:39.750Z,1007.65
2018-03-19T00:29:39.850Z,1007.61
2018-03-19T00:30:40.278Z,1007.67
2018-03-19T00:31:39.967Z,1007.63
2018-03-19T00:32:39.978Z,1007.63
2018-03-19T00:33:40.043Z,1007.67
2018-03-19T00:34:40.114Z,1007.66
2018-03-19T00:35:41.207Z,1007.62
2018-03-19T00:36:41.163Z,1007.60
2018-03-19T00:37:40.331Z,1007.65
2018-03-19T00:38:40.338Z,1007.61
2018-03-19T00:39:40.427Z,1007.63
2018-03-19T00:40:40.459Z,1007.66
2018-03-19T00:41:40.546Z,1007.67
2018-03-19T00:42:40.554Z,1007.60
2018-03-19T00:43:40.611Z,1007.62
2018-03-19T00:44:40.675Z,1007.60
2018-03-19T00:45:40.751Z,1007.60
2018-03-19T00:46:40.786Z,1007.61
2018-03-19T00:47:40.836Z,1007.62
2018-03-19T00:48:41.723Z,1007.63
2018-03-19T00:49:41.023Z,1007.59
2018-03-19T00:50:41.076Z,1007.58
2018-03-19T00:51:41.103Z,1007.58
2018-03-19T00:52:41.131Z,1007.56
2018-03-19T00:53:41.195Z,1007.56
2018-03-19T00:54:41.251Z,1007.54
2018-03-19T00:55:42.167Z,1007.54
2018-03-19T00:56:42.383Z,1007.53
2018-03-19T00:57:41.461Z,1007.55
2018-03-19T00:58:41.520Z,1007.56
2018-03-19T00:59:41.531Z,1007.56
2018-03-19T01:00:41.636Z,1007.55
2018-03-19T01:01:41.743Z,1007.57
2018-03-19T01:02:41.847Z,1007.57
2018-03-19T01:03:41.772Z,1007.58
2018-03-19T01:04:41.905Z,1007.58
2018-03-19T01:05:41.948Z,1007.59
2018-03-19T01:06:41.984Z,1007.58
2018-03-19T01:07:42.016Z,1007.55
2018-03-19T01:08:42.288Z,1007.53
2018-03-19T01:09:42.168Z,1007.56
2018-03-19T01:10:42.407Z,1007.53
2018-03-19T01:11:42.252Z,1007.51
2018-03-19T01:12:42.327Z,1007.49
2018-03-19T01:13:42.328Z,1007.52
2018-03-19T01:14:42.405Z,1007.51
2018-03-19T01:15:42.488Z,1007.50
2018-03-19T01:16:43.348Z,1007.50
2018-03-19T01:17:42.628Z,1007.50
2018-03-19T01:18:42.625Z,1007.45
2018-03-19T01:19:42.748Z,1007.53
2018-03-19T01:20:42.772Z,1007.51
2018-03-19T01:21:42.808Z,1007.53
2018-03-19T01:22:42.893Z,1007.48
2018-03-19T01:23:42.924Z,1007.50
2018-03-19T01:24:43.037Z,1007.51
2018-03-19T01:25:43.057Z,1007.53
2018-03-19T01:26:43.117Z,1007.50
2018-03-19T01:27:43.137Z,1007.53
2018-03-19T01:28:43.224Z,1007.52
2018-03-19T01:29:43.272Z,1007.52
2018-03-19T01:30:43.488Z,1007.54
2018-03-19T01:31:43.425Z,1007.56
2018-03-19T01:32:43.456Z,1007.53
2018-03-19T01:33:43.697Z,1007.52
2018-03-19T01:34:43.601Z,1007.56
2018-03-19T01:35:43.637Z,1007.54
2018-03-19T01:36:43.769Z,1007.52
2018-03-19T01:37:43.744Z,1007.54
2018-03-19T01:38:43.787Z,1007.54
2018-03-19T01:39:43.857Z,1007.50
2018-03-19T01:40:44.357Z,1007.51
2018-03-19T01:41:43.956Z,1007.47
2018-03-19T01:42:43.989Z,1007.48
2018-03-19T01:43:44.161Z,1007.51
2018-03-19T01:44:44.377Z,1007.45
2018-03-19T01:45:44.305Z,1007.48
2018-03-19T01:46:44.239Z,1007.48
2018-03-19T01:47:44.301Z,1007.48
2018-03-19T01:48:44.361Z,1007.45
2018-03-19T01:49:44.418Z,1007.47
2018-03-19T01:50:44.621Z,1007.47
2018-03-19T01:51:44.574Z,1007.45
2018-03-19T01:52:44.613Z,1007.42
2018-03-19T01:53:44.654Z,1007.43
2018-03-19T01:54:44.677Z,1007.42
2018-03-19T01:55:44.802Z,1007.43
2018-03-19T01:56:44.862Z,1007.41
2018-03-19T01:57:44.873Z,1007.43
2018-03-19T01:58:44.934Z,1007.42
2018-03-19T01:59:45.093Z,1007.40
2018-03-19T02:00:45.046Z,1007.41
2018-03-19T02:01:45.102Z,1007.39
2018-03-19T02:02:45.165Z,1007.43
2018-03-19T02:03:45.213Z,1007.42
2018-03-19T02:04:45.266Z,1007.43
2018-03-19T02:05:45.817Z,1007.41
2018-03-19T02:06:45.637Z,1007.41
2018-03-19T02:07:45.434Z,1007.40
2018-03-19T02:08:45.538Z,1007.41
2018-03-19T02:09:45.550Z,1007.41
2018-03-19T02:10:45.622Z,1007.40
2018-03-19T02:11:45.698Z,1007.37
2018-03-19T02:12:45.731Z,1007.39
2018-03-19T02:13:45.793Z,1007.41
2018-03-19T02:14:45.890Z,1007.38
2018-03-19T02:15:45.906Z,1007.34
2018-03-19T02:16:45.975Z,1007.36
2018-03-19T02:17:46.030Z,1007.33
2018-03-19T02:18:46.503Z,1007.36
2018-03-19T02:19:46.148Z,1007.39
2018-03-19T02:20:46.203Z,1007.39
2018-03-19T02:21:46.267Z,1007.36
2018-03-19T02:22:46.487Z,1007.34
2018-03-19T02:23:46.363Z,1007.32
2018-03-19T02:24:46.459Z,1007.37
2018-03-19T02:25:46.475Z,1007.32
2018-03-19T02:26:46.539Z,1007.34
2018-03-19T02:27:46.631Z,1007.37
2018-03-19T02:28:46.695Z,1007.35
2018-03-19T02:29:46.751Z,1007.39
2018-03-19T02:30:46.796Z,1007.38
2018-03-19T02:31:46.792Z,1007.37
2018-03-19T02:32:46.895Z,1007.40
2018-03-19T02:33:47.255Z,1007.40
2018-03-19T02:34:46.998Z,1007.39
2018-03-19T02:35:47.064Z,1007.38
2018-03-19T02:36:47.120Z,1007.42
2018-03-19T02:37:47.292Z,1007.43
2018-03-19T02:38:47.238Z,1007.39
2018-03-19T02:39:47.284Z,1007.42
2018-03-19T02:40:47.344Z,1007.40
2018-03-19T02:41:47.383Z,1007.41
2018-03-19T02:42:47.821Z,1007.44
2018-03-19T02:43:47.548Z,1007.43
2018-03-19T02:44:47.596Z,1007.46
2018-03-19T02:45:49.957Z,1007.51
2018-03-19T02:46:47.689Z,1007.52
2018-03-19T02:47:47.778Z,1007.45
2018-03-19T02:48:47.820Z,1007.47
2018-03-19T02:49:47.876Z,1007.52
2018-03-19T02:50:47.893Z,1007.53
2018-03-19T02:51:47.970Z,1007.47
2018-03-19T02:52:48.124Z,1007.55
2018-03-19T02:53:48.094Z,1007.49
2018-03-19T02:54:48.132Z,1007.53
2018-03-19T02:55:48.204Z,1007.55
2018-03-19T02:56:48.260Z,1007.50
2018-03-19T02:57:48.909Z,1007.49
2018-03-19T02:58:48.368Z,1007.52
2018-03-19T02:59:48.544Z,1007.53
2018-03-19T03:00:48.497Z,1007.56
2018-03-19T03:01:49.003Z,1007.52
2018-03-19T03:02:48.592Z,1007.51
2018-03-19T03:03:48.680Z,1007.49
2018-03-19T03:04:49.497Z,1007.53
2018-03-19T03:05:48.777Z,1007.55
2018-03-19T03:06:48.816Z,1007.54
2018-03-19T03:07:48.895Z,1007.55
2018-03-19T03:08:49.013Z,1007.58
2018-03-19T03:09:49.025Z,1007.58
2018-03-19T03:10:49.053Z,1007.61
2018-03-19T03:11:49.100Z,1007.60
2018-03-19T03:12:49.748Z,1007.63
2018-03-19T03:13:49.269Z,1007.56
2018-03-19T03:14:49.286Z,1007.56
2018-03-19T03:15:49.350Z,1007.58
2018-03-19T03:16:51.605Z,1007.58
2018-03-19T03:17:49.445Z,1007.59
2018-03-19T03:18:49.537Z,1007.53
2018-03-19T03:19:49.582Z,1007.59
2018-03-19T03:20:49.621Z,1007.62
2018-03-19T03:21:49.693Z,1007.65
2018-03-19T03:22:49.785Z,1007.61
2018-03-19T03:23:49.797Z,1007.61
2018-03-19T03:24:49.889Z,1007.63
2018-03-19T03:25:49.902Z,1007.63
2018-03-19T03:26:49.973Z,1007.62
2018-03-19T03:27:50.005Z,1007.62
2018-03-19T03:28:50.110Z,1007.61
2018-03-19T03:29:50.109Z,1007.63
2018-03-19T03:30:50.186Z,1007.62
2018-03-19T03:31:50.242Z,1007.62
2018-03-19T03:32:50.306Z,1007.64
2018-03-19T03:33:50.369Z,1007.66
2018-03-19T03:34:52.134Z,1007.63
2018-03-19T03:35:50.486Z,1007.67
2018-03-19T03:36:50.521Z,1007.66
2018-03-19T03:37:50.590Z,1007.71
2018-03-19T03:38:50.630Z,1007.68
2018-03-19T03:39:50.813Z,1007.70
2018-03-19T03:40:50.741Z,1007.68
2018-03-19T03:41:50.798Z,1007.68
2018-03-19T03:42:50.857Z,1007.66
2018-03-19T03:43:50.910Z,1007.66
2018-03-19T03:44:50.998Z,1007.64
2018-03-19T03:45:51.054Z,1007.68
2018-03-19T03:46:51.150Z,1007.64
2018-03-19T03:47:51.190Z,1007.69
2018-03-19T03:48:51.222Z,1007.65
2018-03-19T03:49:51.317Z,1007.67
2018-03-19T03:50:51.490Z,1007.69
2018-03-19T03:51:51.377Z,1007.65
2018-03-19T03:52:51.418Z,1007.71
2018-03-19T03:53:51.526Z,1007.66
2018-03-19T03:54:51.866Z,1007.68
2018-03-19T03:55:52.994Z,1007.63
2018-03-19T03:56:51.646Z,1007.66
2018-03-19T03:57:51.734Z,1007.65
2018-03-19T03:58:51.810Z,1007.65
2018-03-19T03:59:51.818Z,1007.69
2018-03-19T04:00:52.981Z,1007.66
2018-03-19T04:01:52.067Z,1007.68
2018-03-19T04:02:51.991Z,1007.64
2018-03-19T04:03:52.063Z,1007.67
2018-03-19T04:04:52.139Z,1007.71
2018-03-19T04:05:52.334Z,1007.70
2018-03-19T04:06:52.266Z,1007.71
2018-03-19T04:07:52.303Z,1007.74
2018-03-19T04:08:52.343Z,1007.73
2018-03-19T04:09:52.391Z,1007.73
2018-03-19T04:10:52.463Z,1007.77
2018-03-19T04:11:52.543Z,1007.75
2018-03-19T04:12:52.555Z,1007.76
2018-03-19T04:13:52.634Z,1007.78
2018-03-19T04:14:52.695Z,1007.72
2018-03-19T04:15:52.759Z,1007.80
2018-03-19T04:16:52.815Z,1007.75
2018-03-19T04:17:52.918Z,1007.77
2018-03-19T04:18:52.915Z,1007.76
2018-03-19T04:19:52.972Z,1007.73
2018-03-19T04:20:53.027Z,1007.79
2018-03-19T04:21:53.931Z,1007.82
2018-03-19T04:22:53.116Z,1007.77
2018-03-19T04:23:53.203Z,1007.79
2018-03-19T04:24:53.251Z,1007.79
2018-03-19T04:25:53.299Z,1007.81
2018-03-19T04:26:53.515Z,1007.81
2018-03-19T04:27:53.580Z,1007.79
2018-03-19T04:28:53.475Z,1007.82
2018-03-19T04:29:53.523Z,1007.85
2018-03-19T04:30:53.579Z,1007.81
2018-03-19T04:31:53.652Z,1007.81
2018-03-19T04:32:53.724Z,1007.77
2018-03-19T04:33:53.736Z,1007.77
2018-03-19T04:34:53.808Z,1007.75
2018-03-19T04:35:53.908Z,1007.76
2018-03-19T04:36:53.947Z,1007.74
2018-03-19T04:37:53.993Z,1007.80
2018-03-19T04:38:54.044Z,1007.80
2018-03-19T04:39:54.104Z,1007.75
2018-03-19T04:40:54.152Z,1007.72
2018-03-19T04:41:54.316Z,1007.79
2018-03-19T04:42:54.284Z,1007.79
2018-03-19T04:43:54.308Z,1007.77
2018-03-19T04:44:54.356Z,1007.80
2018-03-19T04:45:54.458Z,1007.81
2018-03-19T04:46:54.505Z,1007.80
2018-03-19T04:47:54.549Z,1007.79
2018-03-19T04:48:54.589Z,1007.80
2018-03-19T04:49:54.646Z,1007.82
2018-03-19T04:50:54.693Z,1007.85
2018-03-19T04:51:54.786Z,1007.82
2018-03-19T04:52:54.841Z,1007.83
2018-03-19T04:53:54.881Z,1007.83
2018-03-19T04:54:54.930Z,1007.81
2018-03-19T04:55:54.981Z,1007.84
2018-03-19T04:56:55.061Z,1007.83
2018-03-19T04:57:55.106Z,1007.85
2018-03-19T04:58:55.162Z,1007.87
2018-03-19T04:59:55.211Z,1007.85
2018-03-19T05:00:55.449Z,1007.85
2018-03-19T05:01:55.330Z,1007.86
2018-03-19T05:02:55.385Z,1007.83
2018-03-19T05:03:55.453Z,1007.87
2018-03-19T05:04:55.497Z,1007.85
2018-03-19T05:05:55.566Z,1007.88
2018-03-19T05:06:55.622Z,1007.91
2018-03-19T05:07:55.677Z,1007.92
2018-03-19T05:08:55.722Z,1007.97
2018-03-19T05:09:55.826Z,1007.93
2018-03-19T05:10:55.826Z,1007.94
2018-03-19T05:11:55.898Z,1007.95
2018-03-19T05:12:55.960Z,1007.94
2018-03-19T05:13:56.274Z,1007.93
2018-03-19T05:14:56.063Z,1007.92
2018-03-19T05:15:56.110Z,1007.89
2018-03-19T05:16:56.330Z,1007.90
2018-03-19T05:17:56.226Z,1007.95
2018-03-19T05:18:56.277Z,1007.92
2018-03-19T05:19:56.346Z,1007.88
2018-03-19T05:20:56.402Z,1007.91
2018-03-19T05:21:56.465Z,1007.91
2018-03-19T05:22:56.524Z,1007.94
2018-03-19T05:23:56.562Z,1007.95
2018-03-19T05:24:56.814Z,1007.91
2018-03-19T05:25:56.678Z,1007.93
2018-03-19T05:26:56.738Z,1007.92
2018-03-19T05:27:56.794Z,1007.94
2018-03-19T05:28:56.842Z,1007.97
2018-03-19T05:29:56.902Z,1007.98
2018-03-19T05:30:56.958Z,1007.99
2018-03-19T05:31:57.178Z,1007.99
2018-03-19T05:32:57.087Z,1008.01
2018-03-19T05:33:57.131Z,1008.04
2018-03-19T05:34:57.183Z,1008.05
2018-03-19T05:35:57.246Z,1008.06
2018-03-19T05:36:57.311Z,1008.10
2018-03-19T05:37:57.355Z,1008.10
2018-03-19T05:38:57.430Z,1008.10
2018-03-19T05:39:57.463Z,1008.07
2018-03-19T05:40:57.544Z,1008.03
2018-03-19T05:41:57.587Z,1008.07
2018-03-19T05:42:57.655Z,1008.09
2018-03-19T05:43:57.695Z,1008.12
2018-03-19T05:44:57.747Z,1008.11
2018-03-19T05:45:57.807Z,1008.10
2018-03-19T05:46:57.872Z,1008.11
2018-03-19T05:47:57.939Z,1008.14
2018-03-19T05:48:57.979Z,1008.08
2018-03-19T05:49:58.031Z,1008.07
2018-03-19T05:50:58.101Z,1008.07
2018-03-19T05:51:58.264Z,1008.16
2018-03-19T05:52:58.204Z,1008.11
2018-03-19T05:53:58.260Z,1008.12
2018-03-19T05:54:58.315Z,1008.22
2018-03-19T05:55:58.372Z,1008.17
2018-03-19T05:56:58.436Z,1008.20
2018-03-19T05:57:58.508Z,1008.25
2018-03-19T05:58:59.276Z,1008.26
2018-03-19T05:59:58.604Z,1008.25
2018-03-19T06:00:58.652Z,1008.28
2018-03-19T06:01:58.715Z,1008.24
2018-03-19T06:02:58.776Z,1008.25
2018-03-19T06:03:58.828Z,1008.27
2018-03-19T06:04:58.894Z,1008.31
2018-03-19T06:05:58.936Z,1008.33
2018-03-19T06:06:59.004Z,1008.34
2018-03-19T06:07:59.060Z,1008.35
2018-03-19T06:08:59.124Z,1008.35
2018-03-19T06:09:59.172Z,1008.35
2018-03-19T06:10:59.236Z,1008.40
2018-03-19T06:11:59.276Z,1008.40
2018-03-19T06:13:01.284Z,1008.44
2018-03-19T06:13:59.396Z,1008.44
2018-03-19T06:14:59.453Z,1008.43
2018-03-19T06:15:59.505Z,1008.47
2018-03-19T06:16:59.556Z,1008.43
2018-03-19T06:17:59.612Z,1008.45
2018-03-19T06:18:59.797Z,1008.42
2018-03-19T06:19:59.732Z,1008.47
2018-03-19T06:20:59.811Z,1008.43
2018-03-19T06:21:59.841Z,1008.40
2018-03-19T06:22:59.898Z,1008.42
2018-03-19T06:23:59.964Z,1008.48
2018-03-19T06:25:00.019Z,1008.40
2018-03-19T06:26:00.077Z,1008.48
2018-03-19T06:27:00.133Z,1008.48
2018-03-19T06:28:00.185Z,1008.50
2018-03-19T06:29:00.237Z,1008.47
2018-03-19T06:30:00.689Z,1008.53
2018-03-19T06:31:00.354Z,1008.57
2018-03-19T06:32:00.409Z,1008.56
2018-03-19T06:33:00.465Z,1008.54
2018-03-19T06:34:00.533Z,1008.58
2018-03-19T06:35:00.578Z,1008.59
2018-03-19T06:36:01.162Z,1008.56
2018-03-19T06:37:00.693Z,1008.58
2018-03-19T06:38:00.750Z,1008.57
2018-03-19T06:39:00.801Z,1008.57
2018-03-19T06:40:00.858Z,1008.57
2018-03-19T06:41:00.969Z,1008.60
2018-03-19T06:42:01.082Z,1008.58
2018-03-19T06:43:01.030Z,1008.65
2018-03-19T06:44:01.090Z,1008.65
2018-03-19T06:45:01.153Z,1008.62
2018-03-19T06:46:01.205Z,1008.63
2018-03-19T06:47:01.266Z,1008.65
2018-03-19T06:48:01.317Z,1008.60
2018-03-19T06:49:01.370Z,1008.65
2018-03-19T06:50:01.432Z,1008.69
2018-03-19T06:51:01.483Z,1008.63
2018-03-19T06:52:01.542Z,1008.70
2018-03-19T06:53:01.608Z,1008.66
2018-03-19T06:54:01.654Z,1008.73
2018-03-19T06:55:01.710Z,1008.72
2018-03-19T06:56:01.770Z,1008.72
2018-03-19T06:57:01.843Z,1008.68
2018-03-19T06:58:01.886Z,1008.67
2018-03-19T06:59:01.941Z,1008.68
2018-03-19T07:00:02.000Z,1008.68
2018-03-19T07:01:02.059Z,1008.70
2018-03-19T07:02:02.142Z,1008.69
2018-03-19T07:03:02.166Z,1008.73
2018-03-19T07:04:02.226Z,1008.67
2018-03-19T07:05:02.291Z,1008.70
2018-03-19T07:06:02.335Z,1008.71
2018-03-19T07:07:02.406Z,1008.70
2018-03-19T07:08:02.455Z,1008.74
2018-03-19T07:09:02.512Z,1008.74
2018-03-19T07:10:02.575Z,1008.79
2018-03-19T07:11:02.618Z,1008.79
2018-03-19T07:12:02.691Z,1008.78
2018-03-19T07:13:02.742Z,1008.75
2018-03-19T07:14:02.803Z,1008.85
2018-03-19T07:15:02.865Z,1008.83
2018-03-19T07:16:02.920Z,1008.84
2018-03-19T07:17:02.983Z,1008.87
2018-03-19T07:18:03.031Z,1008.90
2018-03-19T07:19:03.079Z,1008.88
2018-03-19T07:20:03.144Z,1008.87
2018-03-19T07:21:03.195Z,1008.86
2018-03-19T07:22:03.272Z,1008.93
2018-03-19T07:23:03.311Z,1008.88
2018-03-19T07:24:03.363Z,1008.89
2018-03-19T07:25:03.423Z,1008.91
2018-03-19T07:26:03.479Z,1008.94
2018-03-19T07:27:03.540Z,1008.90
2018-03-19T07:28:03.607Z,1008.87
2018-03-19T07:29:03.644Z,1008.89
2018-03-19T07:30:03.719Z,1008.92
2018-03-19T07:31:03.764Z,1008.92
2018-03-19T07:32:03.828Z,1008.94
2018-03-19T07:33:03.895Z,1008.96
2018-03-19T07:34:03.944Z,1008.96
2018-03-19T07:35:04.010Z,1008.95
2018-03-19T07:36:04.047Z,1008.97
2018-03-19T07:37:04.225Z,1008.99
2018-03-19T07:38:04.227Z,1008.99
2018-03-19T07:39:04.224Z,1008.98
2018-03-19T07:40:04.285Z,1008.96
2018-03-19T07:41:04.372Z,1009.02
2018-03-19T07:42:04.396Z,1009.01
2018-03-19T07:43:04.456Z,1009.01
2018-03-19T07:44:04.516Z,1009.01
2018-03-19T07:45:04.568Z,1008.98
2018-03-19T07:46:04.624Z,1008.95
2018-03-19T07:47:04.696Z,1008.93
2018-03-19T07:48:04.752Z,1008.91
2018-03-19T07:49:04.792Z,1008.92
2018-03-19T07:50:04.852Z,1008.89
2018-03-19T07:51:04.981Z,1008.86
2018-03-19T07:52:04.990Z,1008.86
2018-03-19T07:53:05.032Z,1008.88
2018-03-19T07:54:05.088Z,1008.85
2018-03-19T07:55:05.153Z,1008.88
2018-03-19T07:56:05.196Z,1008.89
2018-03-19T07:57:05.254Z,1008.80
2018-03-19T07:58:05.333Z,1008.83
2018-03-19T07:59:05.368Z,1008.86
2018-03-19T08:00:05.430Z,1008.81
2018-03-19T08:01:05.481Z,1008.83
2018-03-19T08:02:05.539Z,1008.84
2018-03-19T08:03:05.609Z,1008.81
2018-03-19T08:04:05.660Z,1008.82
2018-03-19T08:05:05.709Z,1008.86
2018-03-19T08:06:05.769Z,1008.87
2018-03-19T08:07:05.825Z,1008.91
2018-03-19T08:08:05.889Z,1008.91
2018-03-19T08:09:05.945Z,1008.86
2018-03-19T08:10:06.004Z,1008.93
2018-03-19T08:11:06.055Z,1008.84
2018-03-19T08:12:06.139Z,1008.90
2018-03-19T08:13:06.178Z,1008.88
2018-03-19T08:14:06.526Z,1008.93
2018-03-19T08:15:06.286Z,1008.94
2018-03-19T08:16:06.346Z,1008.94
2018-03-19T08:17:06.399Z,1008.90
2018-03-19T08:18:06.457Z,1008.95
2018-03-19T08:19:06.517Z,1008.99
2018-03-19T08:20:06.685Z,1008.96
2018-03-19T08:21:06.638Z,1008.92
2018-03-19T08:22:06.690Z,1008.99
2018-03-19T08:23:06.742Z,1009.01
2018-03-19T08:24:06.801Z,1008.96
2018-03-19T08:25:06.867Z,1008.96
2018-03-19T08:26:06.926Z,1008.95
2018-03-19T08:27:06.975Z,1008.98
2018-03-19T08:28:07.030Z,1008.95
2018-03-19T08:29:07.091Z,1008.98
2018-03-19T08:30:07.150Z,1008.96
2018-03-19T08:31:07.230Z,1008.94
2018-03-19T08:32:07.262Z,1008.89
2018-03-19T08:33:07.318Z,1008.94
2018-03-19T08:34:07.378Z,1008.91
2018-03-19T08:35:07.434Z,1008.89
2018-03-19T08:36:07.498Z,1008.94
2018-03-19T08:37:07.555Z,1008.92
2018-03-19T08:38:07.607Z,1008.92
2018-03-19T08:39:07.668Z,1008.87
2018-03-19T08:40:07.718Z,1008.93
2018-03-19T08:41:07.782Z,1008.89
2018-03-19T08:42:07.847Z,1008.98
2018-03-19T08:43:07.892Z,1008.97
2018-03-19T08:44:07.951Z,1008.97
2018-03-19T08:45:08.007Z,1008.95
2018-03-19T08:46:08.070Z,1008.95
2018-03-19T08:47:08.131Z,1008.99
2018-03-19T08:48:08.179Z,1008.95
2018-03-19T08:49:08.239Z,1009.01
2018-03-19T08:50:08.295Z,1008.97
2018-03-19T08:51:08.359Z,1009.02
2018-03-19T08:52:08.423Z,1008.99
2018-03-19T08:53:08.467Z,1009.00
2018-03-19T08:54:08.531Z,1008.99
2018-03-19T08:55:08.583Z,1009.00
2018-03-19T08:56:08.651Z,1009.00
2018-03-19T08:57:08.702Z,1008.97
2018-03-19T08:58:08.755Z,1008.98
2018-03-19T08:59:08.815Z,1008.96
2018-03-19T09:00:08.880Z,1008.99
2018-03-19T09:01:08.939Z,1008.95
2018-03-19T09:02:08.992Z,1008.95
2018-03-19T09:03:09.043Z,1008.97
2018-03-19T09:04:09.103Z,1008.96
2018-03-19T09:05:09.160Z,1008.97
2018-03-19T09:06:09.240Z,1008.98
2018-03-19T09:07:09.279Z,1008.94
2018-03-19T09:08:09.339Z,1008.96
2018-03-19T09:09:09.387Z,1009.00
2018-03-19T09:10:10.240Z,1009.01
2018-03-19T09:11:09.511Z,1008.92
2018-03-19T09:12:09.568Z,1009.00
2018-03-19T09:13:09.620Z,1009.00
2018-03-19T09:14:09.676Z,1009.00
2018-03-19T09:15:09.736Z,1009.01
2018-03-19T09:16:09.804Z,1009.02
2018-03-19T09:17:09.868Z,1009.00
2018-03-19T09:18:09.908Z,1008.95
2018-03-19T09:19:09.972Z,1009.01
2018-03-19T09:20:10.044Z,1008.97
2018-03-19T09:21:10.112Z,1008.97
2018-03-19T09:22:10.140Z,1008.97
2018-03-19T09:23:10.213Z,1009.02
2018-03-19T09:24:10.256Z,1009.03
2018-03-19T09:25:10.353Z,1009.07
2018-03-19T09:26:10.376Z,1009.05
2018-03-19T09:27:10.436Z,1009.05
2018-03-19T09:28:10.488Z,1009.02
2018-03-19T09:29:10.544Z,1008.99
2018-03-19T09:30:10.600Z,1009.04
2018-03-19T09:31:10.670Z,1009.06
2018-03-19T09:32:10.729Z,1009.05
2018-03-19T09:33:10.777Z,1009.06
2018-03-19T09:34:10.832Z,1009.07
2018-03-19T09:35:10.959Z,1009.05
2018-03-19T09:36:10.957Z,1009.07
2018-03-19T09:37:11.017Z,1009.10
2018-03-19T09:38:11.072Z,1009.10
2018-03-19T09:39:11.124Z,1009.08
2018-03-19T09:40:11.180Z,1009.07
2018-03-19T09:41:11.257Z,1009.13
2018-03-19T09:42:11.313Z,1009.15
2018-03-19T09:43:11.368Z,1009.12
2018-03-19T09:44:11.416Z,1009.20
2018-03-19T09:45:11.474Z,1009.21
2018-03-19T09:46:11.541Z,1009.20
2018-03-19T09:47:11.597Z,1009.20
2018-03-19T09:48:11.687Z,1009.21
2018-03-19T09:49:11.717Z,1009.21
2018-03-19T09:50:12.353Z,1009.19
2018-03-19T09:51:14.514Z,1009.23
2018-03-19T09:52:15.406Z,1009.20
2018-03-19T09:53:11.973Z,1009.22
2018-03-19T09:54:12.137Z,1009.21
2018-03-19T09:55:14.833Z,1009.21
2018-03-19T09:56:14.806Z,1009.25
2018-03-19T09:57:14.266Z,1009.28
2018-03-19T09:58:15.458Z,1009.25
2018-03-19T09:59:13.781Z,1009.25
2018-03-19T10:00:13.746Z,1009.26
2018-03-19T10:01:14.489Z,1009.28
2018-03-19T10:02:12.473Z,1009.26
2018-03-19T10:03:13.674Z,1009.27
2018-03-19T10:04:14.533Z,1009.28
2018-03-19T10:05:14.246Z,1009.32
2018-03-19T10:06:14.246Z,1009.31
2018-03-19T10:07:14.459Z,1009.35
2018-03-19T10:08:13.809Z,1009.35
2018-03-19T10:09:13.799Z,1009.34
2018-03-19T10:10:13.812Z,1009.38
2018-03-19T10:11:13.166Z,1009.42
2018-03-19T10:12:13.103Z,1009.35
2018-03-19T10:13:14.782Z,1009.39
2018-03-19T10:14:14.793Z,1009.44
2018-03-19T10:15:16.326Z,1009.44
2018-03-19T10:16:14.830Z,1009.41
2018-03-19T10:17:14.530Z,1009.41
2018-03-19T10:18:14.287Z,1009.46
2018-03-19T10:19:16.310Z,1009.48
2018-03-19T10:20:15.478Z,1009.51
2018-03-19T10:21:16.322Z,1009.52
2018-03-19T10:22:14.522Z,1009.48
2018-03-19T10:23:16.315Z,1009.54
2018-03-19T10:24:16.347Z,1009.54
2018-03-19T10:25:14.798Z,1009.47
2018-03-19T10:26:14.847Z,1009.45
2018-03-19T10:27:14.795Z,1009.43
2018-03-19T10:28:14.195Z,1009.44
2018-03-19T10:29:14.831Z,1009.49
2018-03-19T10:30:14.947Z,1009.41
2018-03-19T10:31:14.851Z,1009.44
2018-03-19T10:32:14.555Z,1009.42
2018-03-19T10:33:14.863Z,1009.43
2018-03-19T10:34:14.432Z,1009.40
2018-03-19T10:35:14.491Z,1009.42
2018-03-19T10:36:14.879Z,1009.42
2018-03-19T10:37:15.375Z,1009.42
2018-03-19T10:38:14.631Z,1009.43
2018-03-19T10:39:14.700Z,1009.45
2018-03-19T10:40:14.720Z,1009.40
2018-03-19T10:41:14.775Z,1009.41
2018-03-19T10:42:14.875Z,1009.42
2018-03-19T10:43:14.913Z,1009.43
2018-03-19T10:44:14.971Z,1009.44
2018-03-19T10:45:15.052Z,1009.45
2018-03-19T10:46:15.123Z,1009.45
2018-03-19T10:47:15.177Z,1009.45
2018-03-19T10:48:15.247Z,1009.49
2018-03-19T10:49:15.284Z,1009.49
2018-03-19T10:50:15.354Z,1009.49
2018-03-19T10:51:15.420Z,1009.46
2018-03-19T10:52:15.480Z,1009.51
2018-03-19T10:53:15.500Z,1009.50
2018-03-19T10:54:15.580Z,1009.44
2018-03-19T10:55:15.720Z,1009.42
2018-03-19T10:56:15.712Z,1009.42
2018-03-19T10:57:15.885Z,1009.46
2018-03-19T10:58:15.792Z,1009.46
2018-03-19T10:59:15.872Z,1009.47
2018-03-19T11:00:15.960Z,1009.54
2018-03-19T11:01:16.227Z,1009.48
2018-03-19T11:02:16.217Z,1009.45
2018-03-19T11:03:16.085Z,1009.43
2018-03-19T11:04:16.146Z,1009.51
2018-03-19T11:05:16.205Z,1009.49
2018-03-19T11:06:16.435Z,1009.43
2018-03-19T11:07:16.460Z,1009.41
2018-03-19T11:08:16.476Z,1009.46
2018-03-19T11:09:16.557Z,1009.47
2018-03-19T11:10:16.489Z,1009.45
2018-03-19T11:11:16.532Z,1009.44
2018-03-19T11:12:19.677Z,1009.41
2018-03-19T11:13:17.140Z,1009.41
2018-03-19T11:14:16.937Z,1009.41
2018-03-19T11:15:17.413Z,1009.40
2018-03-19T11:16:16.953Z,1009.40
2018-03-19T11:17:16.908Z,1009.40
2018-03-19T11:18:17.285Z,1009.44
2018-03-19T11:19:17.051Z,1009.43
2018-03-19T11:20:17.109Z,1009.41
2018-03-19T11:21:17.261Z,1009.39
2018-03-19T11:22:17.353Z,1009.34
2018-03-19T11:23:17.297Z,1009.39
2018-03-19T11:24:17.497Z,1009.43
2018-03-19T11:25:17.457Z,1009.40
2018-03-19T11:26:17.521Z,1009.35
2018-03-19T11:27:17.658Z,1009.32
2018-03-19T11:28:17.605Z,1009.29
2018-03-19T11:29:17.622Z,1009.40
2018-03-19T11:30:17.869Z,1009.65
2018-03-19T11:31:17.832Z,1009.76
2018-03-19T11:32:17.947Z,1008.95
2018-03-19T11:33:17.898Z,1007.76
2018-03-19T11:34:18.038Z,1008.20
2018-03-19T11:35:18.033Z,1008.45
2018-03-19T11:36:18.057Z,1008.48
2018-03-19T11:37:18.294Z,1008.37
2018-03-19T11:38:18.290Z,1008.28
2018-03-19T11:39:18.250Z,1008.30
2018-03-19T11:40:18.298Z,1008.35
2018-03-19T11:41:18.389Z,1008.27
2018-03-19T11:42:18.450Z,1008.36
2018-03-19T11:43:18.566Z,1008.42
2018-03-19T11:44:18.570Z,1008.38
2018-03-19T11:45:18.666Z,1008.74
2018-03-19T11:46:18.698Z,1008.38
2018-03-19T11:47:18.829Z,1008.34
2018-03-19T11:48:18.842Z,1008.39
2018-03-19T11:49:18.894Z,1008.41
2018-03-19T11:50:18.995Z,1008.36
2018-03-19T11:51:19.039Z,1008.37
2018-03-19T11:52:19.123Z,1008.44
2018-03-19T11:53:19.202Z,1008.42
2018-03-19T11:54:19.242Z,1008.43
2018-03-19T11:55:19.291Z,1008.44
2018-03-19T11:56:19.362Z,1008.51
2018-03-19T11:57:19.442Z,1008.58
2018-03-19T11:58:19.526Z,1008.70
2018-03-19T11:59:19.610Z,1008.77
2018-03-19T12:00:20.267Z,1008.85
2018-03-19T12:01:19.782Z,1008.94
2018-03-19T12:02:19.819Z,1008.89
2018-03-19T12:03:19.890Z,1008.98
2018-03-19T12:04:19.943Z,1008.92
2018-03-19T12:05:20.035Z,1008.98
2018-03-19T12:06:20.115Z,1009.02